Metar z połowy godziny Komunikat METAR ze strony awiacja.imgw.pl Metar G30 EPDA METAR EPDA 240530Z 21014KT 2000 -RA BR OVC004 03/03 Q1014 RMK 032 098 8/8 =